createdAt,value
2023-05-06T00:00:57.815Z,6.22
2023-05-06T00:03:01.474Z,5.93
2023-05-06T00:05:04.774Z,5.43
2023-05-06T00:07:07.408Z,5.90
2023-05-06T00:09:10.571Z,5.70
2023-05-06T00:11:13.721Z,5.80
2023-05-06T00:13:17.738Z,5.53
2023-05-06T00:15:20.510Z,5.40
2023-05-06T00:17:23.111Z,5.25
2023-05-06T00:19:25.736Z,5.45
2023-05-06T00:21:28.660Z,5.20
2023-05-06T00:23:31.236Z,5.03
2023-05-06T00:25:33.848Z,5.47
2023-05-06T00:27:36.428Z,5.60
2023-05-06T00:29:40.315Z,6.40
2023-05-06T00:31:42.923Z,7.05
2023-05-06T00:33:45.527Z,5.35
2023-05-06T00:35:48.246Z,6.22
2023-05-06T00:37:58.325Z,6.22
2023-05-06T00:40:01.018Z,5.95
2023-05-06T00:42:03.905Z,6.53
2023-05-06T00:44:06.781Z,6.07
2023-05-06T00:46:11.917Z,6.30
2023-05-06T00:48:15.917Z,6.53
2023-05-06T00:50:19.483Z,5.03
2023-05-06T00:52:22.137Z,5.38
2023-05-06T00:54:25.719Z,5.93
2023-05-06T00:56:28.464Z,5.63
2023-05-06T00:58:31.185Z,5.38
2023-05-06T01:00:34.729Z,5.85
2023-05-06T01:02:47.189Z,6.47
2023-05-06T01:04:51.685Z,5.78
2023-05-06T01:07:04.619Z,5.80
2023-05-06T01:09:15.698Z,5.28
2023-05-06T01:11:25.348Z,5.68
2023-05-06T01:13:35.456Z,6.05
2023-05-06T01:15:41.539Z,5.60
2023-05-06T01:17:47.165Z,5.90
2023-05-06T01:19:53.317Z,5.13
2023-05-06T01:21:58.123Z,5.85
2023-05-06T01:24:02.184Z,6.03
2023-05-06T01:26:04.783Z,5.72
2023-05-06T01:28:10.297Z,5.82
2023-05-06T01:30:14.691Z,5.82
2023-05-06T01:32:37.246Z,5.80
2023-05-06T01:34:46.743Z,5.60
2023-05-06T01:36:57.631Z,5.60
2023-05-06T01:39:10.092Z,5.87
2023-05-06T01:41:16.967Z,6.20
2023-05-06T01:43:20.367Z,5.53
2023-05-06T01:45:26.601Z,5.38
2023-05-06T01:47:29.242Z,5.65
2023-05-06T01:49:32.184Z,5.30
2023-05-06T01:51:34.930Z,7.00
2023-05-06T01:53:37.523Z,5.50
2023-05-06T01:55:41.452Z,6.20
2023-05-06T01:57:44.030Z,6.00
2023-05-06T01:59:48.565Z,6.85
2023-05-06T02:01:51.184Z,6.07
2023-05-06T02:03:53.838Z,5.47
2023-05-06T02:05:56.593Z,6.38
2023-05-06T02:07:59.173Z,5.78
2023-05-06T02:10:01.727Z,5.97
2023-05-06T02:12:06.230Z,5.60
2023-05-06T02:14:08.863Z,5.38
2023-05-06T02:16:11.562Z,5.88
2023-05-06T02:18:14.198Z,5.63
2023-05-06T02:20:16.818Z,5.15
2023-05-06T02:22:19.393Z,6.03
2023-05-06T02:24:21.942Z,5.38
2023-05-06T02:26:24.558Z,6.22
2023-05-06T02:28:28.472Z,5.65
2023-05-06T02:30:34.583Z,5.75
2023-05-06T02:32:37.353Z,6.22
2023-05-06T02:34:40.048Z,6.03
2023-05-06T02:36:42.653Z,6.22
2023-05-06T02:38:45.194Z,6.20
2023-05-06T02:40:47.808Z,6.10
2023-05-06T02:42:50.684Z,5.80
2023-05-06T02:44:54.667Z,5.63
2023-05-06T02:46:57.614Z,5.78
2023-05-06T02:49:00.348Z,5.78
2023-05-06T02:51:03.134Z,6.15
2023-05-06T02:53:05.740Z,5.20
2023-05-06T02:55:09.045Z,5.32
2023-05-06T02:57:11.827Z,5.07
2023-05-06T02:59:14.644Z,4.95
2023-05-06T03:01:18.548Z,5.60
2023-05-06T03:03:22.973Z,5.20
2023-05-06T03:05:25.556Z,5.22
2023-05-06T03:07:28.134Z,5.22
2023-05-06T03:09:30.662Z,5.30
2023-05-06T03:11:33.527Z,5.30
2023-05-06T03:13:36.182Z,4.70
2023-05-06T03:15:38.770Z,4.75
2023-05-06T03:17:42.726Z,4.88
2023-05-06T03:19:45.583Z,5.70
2023-05-06T03:21:48.200Z,5.45
2023-05-06T03:23:50.848Z,5.05
2023-05-06T03:25:53.383Z,5.18
2023-05-06T03:27:55.944Z,5.03
2023-05-06T03:29:58.487Z,4.60
2023-05-06T03:32:03.905Z,4.85
2023-05-06T03:34:07.831Z,4.30
2023-05-06T03:36:10.528Z,4.10
2023-05-06T03:38:13.129Z,4.50
2023-05-06T03:40:15.922Z,4.47
2023-05-06T03:42:18.552Z,4.22
2023-05-06T03:44:21.158Z,4.40
2023-05-06T03:46:23.748Z,3.92
2023-05-06T03:48:26.394Z,4.50
2023-05-06T03:50:30.366Z,4.18
2023-05-06T03:52:33.042Z,4.55
2023-05-06T03:54:35.620Z,5.95
2023-05-06T03:56:38.190Z,6.25
2023-05-06T03:58:40.838Z,5.13
2023-05-06T04:00:43.441Z,5.53
2023-05-06T04:02:46.097Z,5.80
2023-05-06T04:04:48.670Z,5.05
2023-05-06T04:06:52.591Z,5.13
2023-05-06T04:08:55.166Z,4.90
2023-05-06T04:10:58.761Z,5.50
2023-05-06T04:13:02.059Z,5.20
2023-05-06T04:15:05.234Z,5.10
2023-05-06T04:17:07.816Z,4.18
2023-05-06T04:19:10.383Z,4.30
2023-05-06T04:21:13.006Z,4.93
2023-05-06T04:23:17.253Z,4.43
2023-05-06T04:25:21.206Z,4.78
2023-05-06T04:27:26.539Z,4.10
2023-05-06T04:29:29.085Z,4.35
2023-05-06T04:31:32.891Z,4.30
2023-05-06T04:33:35.710Z,5.13
2023-05-06T04:35:38.454Z,5.10
2023-05-06T04:37:41.354Z,5.00
2023-05-06T04:39:47.390Z,5.28
2023-05-06T04:41:50.012Z,5.10
2023-05-06T04:43:52.589Z,4.55
2023-05-06T04:45:55.316Z,4.60
2023-05-06T04:47:57.966Z,4.90
2023-05-06T04:50:00.930Z,4.57
2023-05-06T04:52:03.511Z,4.40
2023-05-06T04:54:06.212Z,4.13
2023-05-06T04:56:10.231Z,4.15
2023-05-06T04:58:15.380Z,3.65
2023-05-06T05:00:19.099Z,3.80
2023-05-06T05:02:21.741Z,4.47
2023-05-06T05:04:24.473Z,3.75
2023-05-06T05:06:27.031Z,4.10
2023-05-06T05:08:29.709Z,3.85
2023-05-06T05:10:32.416Z,3.70
2023-05-06T05:12:36.499Z,3.53
2023-05-06T05:14:39.051Z,3.75
2023-05-06T05:16:41.808Z,3.88
2023-05-06T05:18:44.457Z,3.90
2023-05-06T05:20:50.018Z,3.83
2023-05-06T05:22:52.625Z,4.20
2023-05-06T05:24:55.173Z,4.28
2023-05-06T05:26:57.753Z,4.43
2023-05-06T05:29:01.805Z,5.28
2023-05-06T05:31:05.046Z,5.53
2023-05-06T05:33:07.969Z,5.00
2023-05-06T05:35:11.310Z,5.72
2023-05-06T05:37:14.094Z,5.57
2023-05-06T05:39:16.639Z,6.75
2023-05-06T05:41:19.179Z,6.45
2023-05-06T05:43:22.763Z,6.43
2023-05-06T05:45:26.755Z,8.73
2023-05-06T05:47:29.332Z,7.30
2023-05-06T05:49:31.884Z,8.13
2023-05-06T05:51:35.832Z,9.38
2023-05-06T05:53:38.391Z,8.18
2023-05-06T05:55:40.967Z,7.63
2023-05-06T05:57:43.531Z,8.10
2023-05-06T05:59:46.215Z,8.90
2023-05-06T06:01:50.106Z,7.68
2023-05-06T06:03:54.280Z,8.13
2023-05-06T06:05:57.071Z,7.43
2023-05-06T06:08:02.215Z,7.93
2023-05-06T06:10:07.468Z,7.47
2023-05-06T06:12:10.057Z,6.38
2023-05-06T06:14:12.619Z,7.45
2023-05-06T06:16:15.214Z,7.10
2023-05-06T06:18:19.172Z,7.93
2023-05-06T06:20:24.646Z,7.50
2023-05-06T06:22:27.319Z,6.63
2023-05-06T06:24:32.571Z,7.80
2023-05-06T06:26:35.217Z,7.25
2023-05-06T06:28:37.893Z,7.28
2023-05-06T06:30:40.476Z,8.05
2023-05-06T06:32:49.341Z,7.88
2023-05-06T06:34:53.295Z,7.88
2023-05-06T06:36:55.823Z,8.23
2023-05-06T06:38:58.380Z,8.00
2023-05-06T06:41:00.972Z,8.10
2023-05-06T06:43:03.568Z,8.55
2023-05-06T06:45:08.189Z,8.80
2023-05-06T06:47:10.887Z,8.10
2023-05-06T06:49:13.491Z,7.80
2023-05-06T06:51:17.402Z,8.23
2023-05-06T06:53:20.000Z,7.30
2023-05-06T06:55:22.872Z,7.82
2023-05-06T06:57:25.525Z,7.47
2023-05-06T06:59:28.100Z,7.25
2023-05-06T07:01:30.727Z,6.78
2023-05-06T07:03:33.358Z,7.45
2023-05-06T07:05:35.982Z,6.88
2023-05-06T07:07:39.895Z,6.82
2023-05-06T07:09:44.438Z,6.82
2023-05-06T07:11:47.299Z,6.57
2023-05-06T07:13:49.854Z,6.90
2023-05-06T07:15:52.428Z,7.13
2023-05-06T07:17:55.033Z,7.28
2023-05-06T07:19:57.611Z,6.82
2023-05-06T07:22:00.233Z,7.00
2023-05-06T07:24:04.342Z,6.13
2023-05-06T07:26:06.905Z,6.55
2023-05-06T07:28:09.502Z,5.93
2023-05-06T07:30:12.644Z,5.82
2023-05-06T07:32:15.302Z,5.97
2023-05-06T07:34:17.854Z,6.35
2023-05-06T07:36:20.479Z,6.50
2023-05-06T07:38:23.095Z,7.07
2023-05-06T07:40:27.034Z,5.90
2023-05-06T07:42:29.608Z,6.65
2023-05-06T07:44:32.187Z,6.35
2023-05-06T07:46:34.972Z,6.43
2023-05-06T07:48:37.632Z,5.65
2023-05-06T07:50:40.381Z,5.47
2023-05-06T07:52:42.974Z,4.50
2023-05-06T07:54:45.519Z,4.50
2023-05-06T07:56:49.411Z,4.85
2023-05-06T07:58:52.039Z,4.68
2023-05-06T08:00:54.858Z,4.38
2023-05-06T08:02:57.586Z,4.57
2023-05-06T08:05:00.231Z,4.88
2023-05-06T08:07:02.831Z,4.88
2023-05-06T08:09:05.417Z,4.82
2023-05-06T08:11:07.985Z,4.60
2023-05-06T08:13:12.011Z,4.60
2023-05-06T08:15:14.936Z,4.88
2023-05-06T08:17:17.615Z,3.63
2023-05-06T08:19:20.298Z,2.83
2023-05-06T08:21:22.881Z,2.78
2023-05-06T08:23:25.546Z,3.13
2023-05-06T08:25:28.110Z,2.60
2023-05-06T08:27:30.759Z,2.80
2023-05-06T08:29:34.658Z,2.58
2023-05-06T08:31:37.306Z,2.97
2023-05-06T08:33:39.885Z,2.72
2023-05-06T08:35:42.435Z,2.80
2023-05-06T08:37:45.062Z,3.15
2023-05-06T08:39:47.653Z,2.90
2023-05-06T08:41:53.334Z,3.10
2023-05-06T08:43:58.095Z,3.17
2023-05-06T08:46:02.148Z,2.60
2023-05-06T08:48:05.099Z,2.88
2023-05-06T08:50:08.826Z,2.70
2023-05-06T08:52:12.568Z,2.65
2023-05-06T08:54:16.018Z,2.22
2023-05-06T08:56:20.008Z,2.90
2023-05-06T08:58:26.083Z,2.45
2023-05-06T09:00:28.667Z,2.50
2023-05-06T09:02:32.665Z,2.88
2023-05-06T09:04:36.243Z,2.70
2023-05-06T09:06:39.667Z,1.90
2023-05-06T09:08:42.232Z,2.10
2023-05-06T09:10:46.118Z,2.50
2023-05-06T09:12:48.739Z,2.38
2023-05-06T09:14:51.944Z,2.10
2023-05-06T09:16:54.584Z,2.38
2023-05-06T09:18:59.738Z,2.20
2023-05-06T09:21:05.548Z,2.28
2023-05-06T09:23:09.393Z,2.38
2023-05-06T09:25:12.514Z,1.92
2023-05-06T09:27:15.603Z,1.67
2023-05-06T09:29:18.242Z,1.70
2023-05-06T09:31:20.839Z,1.88
2023-05-06T09:33:23.529Z,1.50
2023-05-06T09:35:29.380Z,1.70
2023-05-06T09:37:32.217Z,1.75
2023-05-06T09:39:34.774Z,1.95
2023-05-06T09:41:37.328Z,1.55
2023-05-06T09:43:42.067Z,2.13
2023-05-06T09:45:46.263Z,1.67
2023-05-06T09:47:50.025Z,1.70
2023-05-06T09:49:52.826Z,2.03
2023-05-06T09:51:57.610Z,1.50
2023-05-06T09:54:01.605Z,1.50
2023-05-06T09:56:05.300Z,1.48
2023-05-06T09:58:09.150Z,1.50
2023-05-06T10:00:13.163Z,1.50
2023-05-06T10:02:16.349Z,1.40
2023-05-06T10:04:20.102Z,1.58
2023-05-06T10:06:24.187Z,1.40
2023-05-06T10:08:28.384Z,1.20
2023-05-06T10:10:31.258Z,1.92
2023-05-06T10:12:33.912Z,1.83
2023-05-06T10:14:38.158Z,1.60
2023-05-06T10:16:42.538Z,1.67
2023-05-06T10:18:47.283Z,1.50
2023-05-06T10:20:53.513Z,1.60
2023-05-06T10:23:04.528Z,1.40
2023-05-06T10:25:16.815Z,1.42
2023-05-06T10:27:24.422Z,1.50
2023-05-06T10:29:27.191Z,1.88
2023-05-06T10:31:31.541Z,1.73
2023-05-06T10:33:34.695Z,1.48
2023-05-06T10:35:45.843Z,1.77
2023-05-06T10:37:50.148Z,1.45
2023-05-06T10:39:54.806Z,1.30
2023-05-06T10:41:59.023Z,1.20
2023-05-06T10:44:01.908Z,1.20
2023-05-06T10:46:07.023Z,1.27
2023-05-06T10:48:10.613Z,1.40
2023-05-06T10:50:21.034Z,1.00
2023-05-06T10:52:23.612Z,1.40
2023-05-06T10:54:26.199Z,1.40
2023-05-06T10:56:29.795Z,1.38
2023-05-06T10:58:37.398Z,1.60
2023-05-06T11:00:39.981Z,1.45
2023-05-06T11:02:43.493Z,1.25
2023-05-06T11:04:52.524Z,1.15
2023-05-06T11:06:55.239Z,1.10
2023-05-06T11:08:58.236Z,1.15
2023-05-06T11:11:00.852Z,1.10
2023-05-06T11:13:23.660Z,1.10
2023-05-06T11:15:38.534Z,1.20
2023-05-06T11:17:41.229Z,1.10
2023-05-06T11:19:43.877Z,1.00
2023-05-06T11:21:47.016Z,0.80
2023-05-06T11:24:10.566Z,0.90
2023-05-06T11:26:14.244Z,1.30
2023-05-06T11:28:17.146Z,1.10
2023-05-06T11:30:19.783Z,1.40
2023-05-06T11:32:26.058Z,1.02
2023-05-06T11:34:29.959Z,1.08
2023-05-06T11:36:33.515Z,1.10
2023-05-06T11:38:43.475Z,1.00
2023-05-06T11:40:46.139Z,1.05
2023-05-06T11:42:48.749Z,1.30
2023-05-06T11:44:51.655Z,1.10
2023-05-06T11:46:58.040Z,0.90
2023-05-06T11:49:02.324Z,4.35
2023-05-06T11:51:05.058Z,1.58
2023-05-06T11:53:07.660Z,1.00
2023-05-06T11:55:10.944Z,0.80
2023-05-06T11:57:14.546Z,0.90
2023-05-06T11:59:18.484Z,0.90
2023-05-06T12:01:21.044Z,1.10
2023-05-06T12:03:25.602Z,0.80
2023-05-06T12:05:29.677Z,0.90
2023-05-06T12:07:32.333Z,1.02
2023-05-06T12:09:35.980Z,1.10
2023-05-06T12:11:39.798Z,1.58
2023-05-06T12:13:42.549Z,0.98
2023-05-06T12:15:45.925Z,0.98
2023-05-06T12:17:48.927Z,1.10
2023-05-06T12:19:51.757Z,0.90
2023-05-06T12:21:55.712Z,0.80
2023-05-06T12:24:00.390Z,0.80
2023-05-06T12:26:04.402Z,0.95
2023-05-06T12:28:15.440Z,1.17
2023-05-06T12:30:30.036Z,1.00
2023-05-06T12:32:32.821Z,1.05
2023-05-06T12:34:39.093Z,2.95
2023-05-06T12:36:43.287Z,2.17
2023-05-06T12:38:54.119Z,2.00
2023-05-06T12:40:56.910Z,0.73
2023-05-06T12:42:59.640Z,0.82
2023-05-06T12:45:14.549Z,1.00
2023-05-06T12:47:22.241Z,1.00
2023-05-06T12:49:24.825Z,1.65
2023-05-06T12:51:27.693Z,1.05
2023-05-06T12:53:34.497Z,1.48
2023-05-06T12:55:39.640Z,2.55
2023-05-06T12:57:42.271Z,2.78
2023-05-06T12:59:46.111Z,0.88
2023-05-06T13:01:48.682Z,0.68
2023-05-06T13:03:52.383Z,1.58
2023-05-06T13:05:54.955Z,1.50
2023-05-06T13:07:57.514Z,0.80
2023-05-06T13:10:00.145Z,1.00
2023-05-06T13:12:04.622Z,0.82
2023-05-06T13:14:07.684Z,0.90
2023-05-06T13:16:10.781Z,0.90
2023-05-06T13:18:13.376Z,0.80
2023-05-06T13:20:16.383Z,1.75
2023-05-06T13:22:18.974Z,1.38
2023-05-06T13:24:21.874Z,2.28
2023-05-06T13:26:24.921Z,1.13
2023-05-06T13:28:28.834Z,1.60
2023-05-06T13:30:32.394Z,1.40
2023-05-06T13:32:35.303Z,0.80
2023-05-06T13:34:37.901Z,0.90
2023-05-06T13:36:40.498Z,0.90
2023-05-06T13:38:43.057Z,1.00
2023-05-06T13:40:47.609Z,1.40
2023-05-06T13:42:50.233Z,30.40
2023-05-06T13:44:54.146Z,3.63
2023-05-06T13:46:56.732Z,3.33
2023-05-06T13:48:59.364Z,1.40
2023-05-06T13:51:02.011Z,0.85
2023-05-06T13:53:05.404Z,1.20
2023-05-06T13:55:09.799Z,1.00
2023-05-06T13:57:12.509Z,2.38
2023-05-06T13:59:15.063Z,1.00
2023-05-06T14:01:19.465Z,0.80
2023-05-06T14:03:22.394Z,1.00
2023-05-06T14:05:25.100Z,0.85
2023-05-06T14:07:27.748Z,0.93
2023-05-06T14:09:30.322Z,1.10
2023-05-06T14:11:32.929Z,0.82
2023-05-06T14:13:35.499Z,1.27
2023-05-06T14:15:38.128Z,1.60
2023-05-06T14:17:42.449Z,0.80
2023-05-06T14:19:45.862Z,2.60
2023-05-06T14:21:48.454Z,0.93
2023-05-06T14:23:51.059Z,0.80
2023-05-06T14:25:53.606Z,0.90
2023-05-06T14:27:56.407Z,1.10
2023-05-06T14:29:59.054Z,0.80
2023-05-06T14:32:01.791Z,0.90
2023-05-06T14:34:05.765Z,1.08
2023-05-06T14:36:08.746Z,1.15
2023-05-06T14:38:11.665Z,0.70
2023-05-06T14:40:15.856Z,1.08
2023-05-06T14:42:18.420Z,0.90
2023-05-06T14:44:21.095Z,1.05
2023-05-06T14:46:23.779Z,1.02
2023-05-06T14:48:26.384Z,1.00
2023-05-06T14:50:30.725Z,0.90
2023-05-06T14:52:33.278Z,0.98
2023-05-06T14:54:41.896Z,1.00
2023-05-06T14:56:46.394Z,0.77
2023-05-06T14:58:48.967Z,1.20
2023-05-06T15:00:51.575Z,1.00
2023-05-06T15:02:54.232Z,0.88
2023-05-06T15:04:57.061Z,0.90
2023-05-06T15:07:01.724Z,1.00
2023-05-06T15:09:05.023Z,1.00
2023-05-06T15:11:07.974Z,1.13
2023-05-06T15:13:10.911Z,0.98
2023-05-06T15:15:13.730Z,0.95
2023-05-06T15:17:16.687Z,1.13
2023-05-06T15:19:19.241Z,1.30
2023-05-06T15:21:21.866Z,1.40
2023-05-06T15:23:25.860Z,0.80
2023-05-06T15:25:35.752Z,1.10
2023-05-06T15:27:38.954Z,2.30
2023-05-06T15:29:41.571Z,1.48
2023-05-06T15:31:45.614Z,1.50
2023-05-06T15:33:48.190Z,1.60
2023-05-06T15:35:50.763Z,1.42
2023-05-06T15:37:58.448Z,1.00
2023-05-06T15:40:02.516Z,0.90
2023-05-06T15:42:06.110Z,1.30
2023-05-06T15:44:10.488Z,1.38
2023-05-06T15:46:13.151Z,1.52
2023-05-06T15:48:15.951Z,1.60
2023-05-06T15:50:32.925Z,1.15
2023-05-06T15:52:36.624Z,1.20
2023-05-06T15:54:40.002Z,1.20
2023-05-06T15:56:45.228Z,1.13
2023-05-06T15:58:47.841Z,2.40
2023-05-06T16:00:50.408Z,1.75
2023-05-06T16:02:55.190Z,1.15
2023-05-06T16:04:58.116Z,1.70
2023-05-06T16:07:00.788Z,3.05
2023-05-06T16:09:03.459Z,1.60
2023-05-06T16:11:06.071Z,1.90
2023-05-06T16:13:09.980Z,1.40
2023-05-06T16:15:12.744Z,1.80
2023-05-06T16:17:16.481Z,2.00
2023-05-06T16:19:19.034Z,1.48
2023-05-06T16:21:21.610Z,1.45
2023-05-06T16:23:24.170Z,1.60
2023-05-06T16:25:27.004Z,2.30
2023-05-06T16:27:29.622Z,1.80
2023-05-06T16:29:33.571Z,1.55
2023-05-06T16:31:36.176Z,1.10
2023-05-06T16:33:38.976Z,1.17
2023-05-06T16:35:41.817Z,1.20
2023-05-06T16:37:44.592Z,1.15
2023-05-06T16:39:47.268Z,1.75
2023-05-06T16:41:49.865Z,1.35
2023-05-06T16:43:52.407Z,1.40
2023-05-06T16:45:56.334Z,2.80
2023-05-06T16:47:59.026Z,1.83
2023-05-06T16:50:01.650Z,2.20
2023-05-06T16:52:04.466Z,2.00
2023-05-06T16:54:07.032Z,1.52
2023-05-06T16:56:10.764Z,1.70
2023-05-06T16:58:13.344Z,1.50
2023-05-06T17:00:16.807Z,1.48
2023-05-06T17:02:21.447Z,1.63
2023-05-06T17:04:25.527Z,1.60
2023-05-06T17:06:31.222Z,1.63
2023-05-06T17:08:36.309Z,1.70
2023-05-06T17:10:39.367Z,1.52
2023-05-06T17:12:42.850Z,1.48
2023-05-06T17:14:45.550Z,1.77
2023-05-06T17:16:48.212Z,1.60
2023-05-06T17:18:52.142Z,1.70
2023-05-06T17:20:57.030Z,1.50
2023-05-06T17:22:59.937Z,1.40
2023-05-06T17:25:02.658Z,1.65
2023-05-06T17:27:05.691Z,1.63
2023-05-06T17:29:08.308Z,1.70
2023-05-06T17:31:10.928Z,1.70
2023-05-06T17:33:13.712Z,1.80
2023-05-06T17:35:17.858Z,1.70
2023-05-06T17:37:20.418Z,1.40
2023-05-06T17:39:22.991Z,1.20
2023-05-06T17:41:25.887Z,1.48
2023-05-06T17:43:28.536Z,1.55
2023-05-06T17:45:31.223Z,1.48
2023-05-06T17:47:34.256Z,1.80
2023-05-06T17:49:36.920Z,1.40
2023-05-06T17:51:40.858Z,1.60
2023-05-06T17:53:43.432Z,1.40
2023-05-06T17:55:45.977Z,1.90
2023-05-06T17:57:48.657Z,1.63
2023-05-06T17:59:51.253Z,1.67
2023-05-06T18:01:53.872Z,1.50
2023-05-06T18:03:56.666Z,1.67
2023-05-06T18:05:59.904Z,1.92
2023-05-06T18:08:04.768Z,1.70
2023-05-06T18:10:08.596Z,2.17
2023-05-06T18:12:11.165Z,2.20
2023-05-06T18:14:13.848Z,2.20
2023-05-06T18:16:16.442Z,1.80
2023-05-06T18:18:19.001Z,1.70
2023-05-06T18:20:21.552Z,1.75
2023-05-06T18:22:24.105Z,1.90
2023-05-06T18:24:28.106Z,1.65
2023-05-06T18:26:44.095Z,2.50
2023-05-06T18:28:47.704Z,2.08
2023-05-06T18:30:50.248Z,2.20
2023-05-06T18:32:54.555Z,1.92
2023-05-06T18:34:59.022Z,2.13
2023-05-06T18:37:01.578Z,2.80
2023-05-06T18:39:04.553Z,2.45
2023-05-06T18:41:09.011Z,2.40
2023-05-06T18:43:11.594Z,2.00
2023-05-06T18:45:14.302Z,2.35
2023-05-06T18:47:17.132Z,2.08
2023-05-06T18:49:19.662Z,2.45
2023-05-06T18:51:22.279Z,2.50
2023-05-06T18:53:24.909Z,2.20
2023-05-06T18:55:27.791Z,2.40
2023-05-06T18:57:31.780Z,2.45
2023-05-06T18:59:34.596Z,3.00
2023-05-06T19:01:37.243Z,2.38
2023-05-06T19:03:40.124Z,2.50
2023-05-06T19:05:42.743Z,2.70
2023-05-06T19:07:45.299Z,2.63
2023-05-06T19:09:47.849Z,2.45
2023-05-06T19:11:51.516Z,3.20
2023-05-06T19:13:55.432Z,2.92
2023-05-06T19:15:58.087Z,3.20
2023-05-06T19:18:00.680Z,2.72
2023-05-06T19:20:04.170Z,2.90
2023-05-06T19:22:06.757Z,2.60
2023-05-06T19:24:09.374Z,3.10
2023-05-06T19:26:13.161Z,3.13
2023-05-06T19:28:15.710Z,3.15
2023-05-06T19:30:19.897Z,3.13
2023-05-06T19:32:22.500Z,3.10
2023-05-06T19:34:25.458Z,3.17
2023-05-06T19:36:28.234Z,3.13
2023-05-06T19:38:30.948Z,4.07
2023-05-06T19:40:34.792Z,3.95
2023-05-06T19:42:37.365Z,3.50
2023-05-06T19:44:39.951Z,3.40
2023-05-06T19:46:43.868Z,3.38
2023-05-06T19:48:46.907Z,3.83
2023-05-06T19:50:49.460Z,4.15
2023-05-06T19:52:52.043Z,4.15
2023-05-06T19:54:54.585Z,4.10
2023-05-06T19:56:57.288Z,4.05
2023-05-06T19:58:59.876Z,4.00
2023-05-06T20:01:02.509Z,3.42
2023-05-06T20:03:06.518Z,3.78
2023-05-06T20:05:10.020Z,3.83
2023-05-06T20:07:13.522Z,4.43
2023-05-06T20:09:16.134Z,7.93
2023-05-06T20:11:18.708Z,8.13
2023-05-06T20:13:21.409Z,8.98
2023-05-06T20:15:24.063Z,9.10
2023-05-06T20:17:27.112Z,8.27
2023-05-06T20:19:31.304Z,7.88
2023-05-06T20:21:33.908Z,7.65
2023-05-06T20:23:36.462Z,6.68
2023-05-06T20:25:38.996Z,6.43
2023-05-06T20:27:41.554Z,4.65
2023-05-06T20:29:44.128Z,5.18
2023-05-06T20:31:47.097Z,5.68
2023-05-06T20:33:49.762Z,5.60
2023-05-06T20:35:53.667Z,5.75
2023-05-06T20:37:56.445Z,6.40
2023-05-06T20:40:02.439Z,6.82
2023-05-06T20:42:05.205Z,6.43
2023-05-06T20:44:07.759Z,6.93
2023-05-06T20:46:10.336Z,6.50
2023-05-06T20:48:14.865Z,7.25
2023-05-06T20:50:18.665Z,7.28
2023-05-06T20:52:22.664Z,8.18
2023-05-06T20:54:25.356Z,10.82
2023-05-06T20:56:28.641Z,8.93
2023-05-06T20:58:31.188Z,9.27
2023-05-06T21:00:33.763Z,8.75
2023-05-06T21:02:41.026Z,8.40
2023-05-06T21:04:44.382Z,8.20
2023-05-06T21:06:46.944Z,6.63
2023-05-06T21:08:51.801Z,7.95
2023-05-06T21:10:54.456Z,8.65
2023-05-06T21:12:57.037Z,9.15
2023-05-06T21:14:59.671Z,9.18
2023-05-06T21:17:02.339Z,7.78
2023-05-06T21:19:04.981Z,8.48
2023-05-06T21:21:07.550Z,7.57
2023-05-06T21:23:10.172Z,8.23
2023-05-06T21:25:14.277Z,7.13
2023-05-06T21:27:16.993Z,7.13
2023-05-06T21:29:20.581Z,6.20
2023-05-06T21:31:25.141Z,6.32
2023-05-06T21:33:27.776Z,6.05
2023-05-06T21:35:31.076Z,5.88
2023-05-06T21:37:35.582Z,5.65
2023-05-06T21:39:38.173Z,5.40
2023-05-06T21:41:42.116Z,6.53
2023-05-06T21:43:44.687Z,5.97
2023-05-06T21:45:47.227Z,4.95
2023-05-06T21:47:50.429Z,5.10
2023-05-06T21:49:53.033Z,5.57
2023-05-06T21:51:56.225Z,5.25
2023-05-06T21:53:59.190Z,4.70
2023-05-06T21:56:01.753Z,5.15
2023-05-06T21:58:05.982Z,4.72
2023-05-06T22:00:12.106Z,4.70
2023-05-06T22:02:15.981Z,3.85
2023-05-06T22:04:20.040Z,4.22
2023-05-06T22:06:23.239Z,3.80
2023-05-06T22:08:25.997Z,3.80
2023-05-06T22:10:28.664Z,3.80
2023-05-06T22:12:32.100Z,4.00
2023-05-06T22:14:41.065Z,4.20
2023-05-06T22:16:45.722Z,4.03
2023-05-06T22:18:48.565Z,4.30
2023-05-06T22:20:52.467Z,4.25
2023-05-06T22:22:55.118Z,4.25
2023-05-06T22:24:57.665Z,3.75
2023-05-06T22:27:00.645Z,4.70
2023-05-06T22:29:03.221Z,4.22
2023-05-06T22:31:07.197Z,3.97
2023-05-06T22:33:09.774Z,4.13
2023-05-06T22:35:12.505Z,4.68
2023-05-06T22:37:16.169Z,4.03
2023-05-06T22:39:18.805Z,4.18
2023-05-06T22:41:21.429Z,3.78
2023-05-06T22:43:24.064Z,3.80
2023-05-06T22:45:26.843Z,3.47
2023-05-06T22:47:31.087Z,3.63
2023-05-06T22:49:33.690Z,4.07
2023-05-06T22:51:36.446Z,3.85
2023-05-06T22:53:39.073Z,3.20
2023-05-06T22:55:41.735Z,3.28
2023-05-06T22:57:44.776Z,3.65
2023-05-06T22:59:47.365Z,3.67
2023-05-06T23:01:49.977Z,4.50
2023-05-06T23:03:53.980Z,3.78
2023-05-06T23:05:56.679Z,3.65
2023-05-06T23:07:59.219Z,3.75
2023-05-06T23:10:02.042Z,4.32
2023-05-06T23:12:05.044Z,4.03
2023-05-06T23:14:08.152Z,3.67
2023-05-06T23:16:10.837Z,4.00
2023-05-06T23:18:13.493Z,3.75
2023-05-06T23:20:17.583Z,3.88
2023-05-06T23:22:20.148Z,3.78
2023-05-06T23:24:22.696Z,3.50
2023-05-06T23:26:25.334Z,3.38
2023-05-06T23:28:28.527Z,3.72
2023-05-06T23:30:31.315Z,3.17
2023-05-06T23:32:37.211Z,3.85
2023-05-06T23:34:39.803Z,3.78
2023-05-06T23:36:43.773Z,3.47
2023-05-06T23:38:48.855Z,3.55
2023-05-06T23:40:51.520Z,4.20
2023-05-06T23:42:54.095Z,3.60
2023-05-06T23:44:56.660Z,3.67
2023-05-06T23:46:59.223Z,3.92
2023-05-06T23:49:01.774Z,4.20
2023-05-06T23:51:04.564Z,3.60
2023-05-06T23:53:08.503Z,4.10
2023-05-06T23:55:11.623Z,4.18
2023-05-06T23:57:14.416Z,4.07
2023-05-06T23:59:17.406Z,3.80
